This is the latest recevied weather packets stored in our database for station/object 9M2GDD-1. If no packets are shown the sender has not sent any weather packets the latest 10 day(s).
| Time | Temp. | Humidity | Pressure | Rain* | Wind** | Luminosity | Snow |
|---|---|---|---|---|---|---|---|
| 1787590404 | 30° C | 65% | 1015.3 hPa | - | - | - | - |
| 1787589504 | 30° C | 67% | 1015.4 hPa | - | - | - | - |
| 1787588604 | 30.56° C | 65% | 1015.6 hPa | - | - | - | - |
| 1787587704 | 30.56° C | 65% | 1015.8 hPa | - | - | - | - |
| 1787586804 | 30.56° C | 66% | 1015.9 hPa | - | - | - | - |
| 1787585903 | 30.56° C | 66% | 1015.7 hPa | - | - | - | - |
| 1787585003 | 30.56° C | 66% | 1015.7 hPa | - | - | - | - |
| 1787584103 | 30.56° C | 66% | 1015.5 hPa | - | - | - | - |
| 1787583203 | 31.11° C | 65% | 1015.4 hPa | - | - | - | - |
| 1787582303 | 30.56° C | 64% | 1015.1 hPa | - | - | - | - |
| 1787581403 | 31.11° C | 64% | 1014.9 hPa | - | - | - | - |
| 1787580503 | 30.56° C | 65% | 1014.7 hPa | - | - | - | - |
| 1787579603 | 31.11° C | 64% | 1014.4 hPa | - | - | - | - |
| 1787578703 | 31.11° C | 64% | 1014 hPa | - | - | - | - |
| 1787577803 | 31.11° C | 63% | 1013.8 hPa | - | - | - | - |
| 1787576903 | 31.11° C | 64% | 1013.8 hPa | - | - | - | - |
| 1787576002 | 31.11° C | 64% | 1013.3 hPa | - | - | - | - |
| 1787575102 | 31.11° C | 64% | 1013.1 hPa | - | - | - | - |
| 1787574202 | 30.56° C | 66% | 1012.9 hPa | - | - | - | - |
| 1787573302 | 30.56° C | 65% | 1012.8 hPa | - | - | - | - |
| 1787572402 | 31.11° C | 62% | 1012.6 hPa | - | - | - | - |
| 1787571502 | 31.67° C | 61% | 1012.6 hPa | - | - | - | - |
| 1787570602 | 31.11° C | 61% | 1012.3 hPa | - | - | - | - |
| 1787569702 | 31.67° C | 59% | 1012.3 hPa | - | - | - | - |
| 1787568802 | 31.67° C | 57% | 1012.2 hPa | - | - | - | - |
* Rain since midnight (hover to see other rain measurements)
** Current wind speed in m/s (hover to see current wind gust speed)